Time;durP1;ratioP1;P1;durP2;ratioP2;P2;SDS_P1;SDS_P2;PMS_P1;PMS_P2;Temp;Humidity;BMP_temperature;BMP_pressure;BME280_temperature;BME280_humidity;BME280_pressure;Samples;Min_cycle;Max_cycle;Signal;HPM_P1;HPM_P2
2020/12/22 00:01:13;;;;;;;2.25;1.30;;;10.60;99.90;;;;;;5012469;28;20493;-73
2020/12/22 00:03:39;;;;;;;2.40;1.23;;;10.50;99.90;;;;;;5012757;28;20073;-73
2020/12/22 00:06:04;;;;;;;1.45;1.30;;;10.50;99.90;;;;;;4994891;28;20072;-71
2020/12/22 00:08:30;;;;;;;1.30;1.20;;;10.60;99.90;;;;;;4994944;28;20080;-71
2020/12/22 00:10:55;;;;;;;2.08;1.45;;;10.60;99.90;;;;;;5011912;28;20489;-72
2020/12/22 00:13:21;;;;;;;1.80;1.55;;;10.60;99.90;;;;;;4994962;28;20026;-72
2020/12/22 00:15:46;;;;;;;1.58;1.48;;;10.60;99.90;;;;;;5012464;28;20524;-70
2020/12/22 00:18:12;;;;;;;2.28;1.50;;;10.60;99.90;;;;;;5011863;28;20548;-71
2020/12/22 00:20:38;;;;;;;2.47;1.40;;;10.60;99.90;;;;;;5010850;28;20022;-71
2020/12/22 00:23:04;;;;;;;1.45;1.20;;;10.60;99.90;;;;;;5010959;28;20432;-72
2020/12/22 00:25:30;;;;;;;1.10;0.85;;;10.50;99.90;;;;;;5009092;28;20030;-73
2020/12/22 00:27:55;;;;;;;1.75;1.27;;;10.50;99.90;;;;;;5011530;28;20084;-73
2020/12/22 00:30:21;;;;;;;2.25;1.30;;;10.50;99.90;;;;;;5011768;28;20030;-72
2020/12/22 00:32:47;;;;;;;1.20;1.10;;;10.50;99.90;;;;;;5012490;28;20029;-72
2020/12/22 00:35:12;;;;;;;1.08;1.05;;;10.50;99.90;;;;;;5012034;28;20061;-72
2020/12/22 00:37:38;;;;;;;2.15;1.27;;;10.50;99.90;;;;;;5008247;28;20026;-73
2020/12/22 00:40:04;;;;;;;1.27;1.10;;;10.50;99.90;;;;;;5011920;28;20112;-73
2020/12/22 00:42:31;;;;;;;1.30;1.20;;;10.50;99.90;;;;;;5012504;28;20026;-72
2020/12/22 00:44:58;;;;;;;1.38;1.27;;;10.50;99.90;;;;;;4980120;28;20038;-73
2020/12/22 00:47:23;;;;;;;2.22;1.08;;;10.50;99.90;;;;;;4998239;28;20517;-72
2020/12/22 00:49:49;;;;;;;1.30;1.00;;;10.60;99.90;;;;;;5004515;28;20030;-72
2020/12/22 00:52:15;;;;;;;2.17;1.33;;;10.50;99.90;;;;;;5003125;28;20029;-71
2020/12/22 00:54:41;;;;;;;1.35;1.25;;;10.50;99.90;;;;;;5012427;28;20022;-72
2020/12/22 00:57:06;;;;;;;1.58;1.48;;;10.50;99.90;;;;;;5012546;28;20033;-73
2020/12/22 00:59:35;;;;;;;1.30;1.20;;;10.50;99.90;;;;;;4997508;28;20536;-70
2020/12/22 01:02:07;;;;;;;1.40;1.30;;;10.50;99.90;;;;;;5014971;28;20045;-70
2020/12/22 01:04:33;;;;;;;0.93;0.93;;;10.60;99.90;;;;;;4999231;28;20027;-71
2020/12/22 01:06:59;;;;;;;1.08;0.90;;;10.70;99.90;;;;;;5013384;28;20042;-73
2020/12/22 01:09:24;;;;;;;1.20;1.10;;;10.70;99.90;;;;;;5016057;28;20510;-70
2020/12/22 01:11:50;;;;;;;1.33;1.17;;;10.70;99.90;;;;;;4998396;28;20076;-72
2020/12/22 01:14:16;;;;;;;1.13;1.02;;;10.70;99.90;;;;;;4998318;28;20026;-71
2020/12/22 01:16:41;;;;;;;0.98;0.82;;;10.80;99.90;;;;;;5015931;28;20419;-72
2020/12/22 01:19:07;;;;;;;1.10;0.88;;;10.90;99.90;;;;;;5015936;28;20026;-73
2020/12/22 01:21:34;;;;;;;0.82;0.82;;;10.90;99.90;;;;;;5016095;28;20028;-73
2020/12/22 01:24:00;;;;;;;0.70;0.70;;;11.00;99.90;;;;;;5015891;28;20028;-72
2020/12/22 01:26:26;;;;;;;1.80;1.00;;;11.00;99.90;;;;;;4995506;28;20026;-70
2020/12/22 01:28:53;;;;;;;1.05;0.90;;;11.00;99.90;;;;;;4997491;28;20060;-72
2020/12/22 01:31:29;;;;;;;1.40;0.82;;;10.90;99.90;;;;;;5014660;28;20033;-71
2020/12/22 01:33:57;;;;;;;0.73;0.73;;;10.90;99.90;;;;;;4997146;28;20049;-70
2020/12/22 01:36:23;;;;;;;0.60;0.60;;;11.00;99.90;;;;;;5014858;28;20022;-72
2020/12/22 01:38:50;;;;;;;0.80;0.77;;;11.00;99.90;;;;;;5014338;28;20026;-72
2020/12/22 01:41:16;;;;;;;2.03;0.85;;;11.00;99.90;;;;;;5013997;28;20322;-72
2020/12/22 01:43:42;;;;;;;3.08;0.77;;;11.00;99.90;;;;;;4996975;28;20034;-73
2020/12/22 01:46:09;;;;;;;0.63;0.63;;;11.00;99.90;;;;;;5014414;28;20030;-73
2020/12/22 01:48:36;;;;;;;1.08;0.77;;;11.00;99.90;;;;;;5014040;28;20466;-71
2020/12/22 01:51:03;;;;;;;1.17;0.70;;;11.00;99.90;;;;;;5014416;28;20402;-72
2020/12/22 01:53:29;;;;;;;1.00;0.80;;;11.10;99.90;;;;;;5014816;28;20038;-71
2020/12/22 01:55:55;;;;;;;1.75;0.50;;;11.10;99.90;;;;;;5014021;28;20477;-71
2020/12/22 01:58:21;;;;;;;0.40;0.40;;;11.00;99.90;;;;;;4996938;28;20030;-71
2020/12/22 02:00:47;;;;;;;0.55;0.55;;;11.10;99.90;;;;;;5014606;28;20084;-72
2020/12/22 02:03:14;;;;;;;0.50;0.50;;;11.10;99.90;;;;;;5014453;28;20029;-73
2020/12/22 02:05:41;;;;;;;0.65;0.65;;;11.20;99.90;;;;;;5015991;28;20033;-71
2020/12/22 02:08:07;;;;;;;0.50;0.50;;;11.30;99.90;;;;;;5013878;28;20485;-73
2020/12/22 02:10:33;;;;;;;0.60;0.60;;;11.30;99.90;;;;;;5014241;28;20034;-71
2020/12/22 02:12:59;;;;;;;0.60;0.60;;;11.30;99.90;;;;;;5014283;28;20030;-70
2020/12/22 02:15:25;;;;;;;0.50;0.50;;;11.20;99.90;;;;;;5014879;28;20022;-72
2020/12/22 02:17:52;;;;;;;0.40;0.40;;;11.20;99.90;;;;;;4996918;28;20099;-71
2020/12/22 02:20:17;;;;;;;0.57;0.50;;;11.10;99.90;;;;;;5014525;28;20148;-71
2020/12/22 02:22:43;;;;;;;0.85;0.52;;;11.20;99.90;;;;;;5014768;28;20096;-72
2020/12/22 02:25:15;;;;;;;0.60;0.50;;;11.10;99.90;;;;;;5014663;28;20507;-72
2020/12/22 02:27:41;;;;;;;0.40;0.40;;;11.20;99.90;;;;;;5014746;28;20053;-72
2020/12/22 02:30:07;;;;;;;0.40;0.40;;;11.20;99.90;;;;;;5014304;28;20109;-73
2020/12/22 02:32:33;;;;;;;0.40;0.40;;;11.20;99.90;;;;;;5013961;28;20030;-72
2020/12/22 02:34:59;;;;;;;1.10;0.40;;;11.30;99.90;;;;;;5013728;28;20587;-71
2020/12/22 02:37:24;;;;;;;0.30;0.30;;;11.20;99.90;;;;;;5013779;28;20133;-72
2020/12/22 02:39:50;;;;;;;0.20;0.20;;;11.20;99.90;;;;;;5013527;28;20105;-72
2020/12/22 02:42:15;;;;;;;0.30;0.30;;;11.30;99.90;;;;;;5013940;28;20454;-72
2020/12/22 02:44:41;;;;;;;0.40;0.40;;;11.40;99.90;;;;;;5013989;28;20030;-71
2020/12/22 02:47:13;;;;;;;1.00;0.35;;;11.40;99.90;;;;;;5014046;28;20034;-71
2020/12/22 02:49:42;;;;;;;1.27;0.30;;;11.40;99.90;;;;;;5014073;28;20029;-71
2020/12/22 02:52:09;;;;;;;0.30;0.30;;;11.40;99.90;;;;;;5013445;28;20112;-71
2020/12/22 02:54:35;;;;;;;0.50;0.40;;;11.40;99.90;;;;;;5013762;28;20511;-72
2020/12/22 02:57:01;;;;;;;0.40;0.30;;;11.40;99.90;;;;;;5014281;28;20093;-71
2020/12/22 02:59:26;;;;;;;0.22;0.22;;;11.50;99.90;;;;;;5014076;28;20026;-71
2020/12/22 03:01:52;;;;;;;0.50;0.30;;;11.50;99.90;;;;;;5013762;28;20018;-74
2020/12/22 03:04:18;;;;;;;0.30;0.30;;;11.50;99.90;;;;;;5013999;28;20033;-72
2020/12/22 03:06:44;;;;;;;0.30;0.30;;;11.40;99.90;;;;;;4996751;28;20389;-71
2020/12/22 03:09:09;;;;;;;0.35;0.35;;;11.40;99.90;;;;;;5013346;28;20139;-71
2020/12/22 03:11:35;;;;;;;0.30;0.30;;;11.50;99.90;;;;;;5013830;28;20033;-71
2020/12/22 03:14:01;;;;;;;0.98;0.30;;;11.50;99.90;;;;;;5013234;28;20397;-71
2020/12/22 03:16:26;;;;;;;0.30;0.30;;;11.50;99.90;;;;;;5013411;28;20030;-70
2020/12/22 03:18:52;;;;;;;0.35;0.35;;;11.50;99.90;;;;;;5013848;28;20022;-71
2020/12/22 03:21:18;;;;;;;0.30;0.30;;;11.50;99.90;;;;;;5013177;28;20030;-70
2020/12/22 03:23:44;;;;;;;0.20;0.20;;;11.50;99.90;;;;;;5013744;28;20073;-70
2020/12/22 03:26:10;;;;;;;0.40;0.22;;;11.60;99.90;;;;;;4995847;28;20042;-72
2020/12/22 03:28:35;;;;;;;1.13;0.20;;;11.60;99.90;;;;;;5013596;28;20615;-72
2020/12/22 03:31:01;;;;;;;0.22;0.22;;;11.60;99.90;;;;;;5014083;28;20044;-73
2020/12/22 03:33:26;;;;;;;0.40;0.40;;;11.60;99.90;;;;;;5014244;28;20045;-72
2020/12/22 03:35:52;;;;;;;2.08;0.55;;;11.60;99.90;;;;;;5014443;28;20022;-72
2020/12/22 03:38:18;;;;;;;0.38;0.30;;;11.70;99.90;;;;;;4996636;28;20054;-71
2020/12/22 03:40:44;;;;;;;0.20;0.20;;;11.70;99.90;;;;;;5014000;28;20546;-71
2020/12/22 03:43:09;;;;;;;0.35;0.30;;;11.70;99.90;;;;;;4996421;28;20397;-72
2020/12/22 03:45:37;;;;;;;0.40;0.20;;;11.70;99.90;;;;;;5012595;28;20034;-71
2020/12/22 03:48:02;;;;;;;0.38;0.30;;;11.60;99.90;;;;;;5013443;28;20102;-71
2020/12/22 03:50:28;;;;;;;0.30;0.30;;;11.70;99.90;;;;;;5014208;28;20065;-72
2020/12/22 03:52:53;;;;;;;0.30;0.30;;;11.80;99.90;;;;;;5013630;28;20030;-71
2020/12/22 03:55:19;;;;;;;0.30;0.30;;;11.70;99.90;;;;;;5013273;28;20084;-71
2020/12/22 03:57:45;;;;;;;0.20;0.20;;;11.60;99.90;;;;;;5013560;28;20028;-71
2020/12/22 04:00:13;;;;;;;0.30;0.30;;;11.60;99.90;;;;;;5013494;28;20030;-70
2020/12/22 04:02:38;;;;;;;0.52;0.30;;;11.60;99.90;;;;;;5013513;28;20030;-72
2020/12/22 04:05:04;;;;;;;0.60;0.45;;;11.60;99.90;;;;;;5013402;28;20028;-73
2020/12/22 04:07:29;;;;;;;1.45;0.30;;;11.70;99.90;;;;;;5013048;28;20061;-71
2020/12/22 04:09:55;;;;;;;0.30;0.30;;;11.70;99.90;;;;;;5014284;28;20030;-72
2020/12/22 04:12:21;;;;;;;0.98;0.30;;;11.60;99.90;;;;;;5013401;28;20073;-72
2020/12/22 04:14:46;;;;;;;1.88;0.40;;;11.60;99.90;;;;;;5016456;28;20032;-71
2020/12/22 04:17:12;;;;;;;0.80;0.20;;;11.50;99.90;;;;;;5019146;28;20081;-72
2020/12/22 04:19:37;;;;;;;0.57;0.55;;;11.60;99.90;;;;;;4998477;28;20033;-71
2020/12/22 04:22:03;;;;;;;0.30;0.30;;;11.50;99.90;;;;;;5014073;28;20030;-71
2020/12/22 04:24:28;;;;;;;0.28;0.28;;;11.60;99.90;;;;;;5012331;28;20033;-72
2020/12/22 04:26:54;;;;;;;0.30;0.30;;;11.50;99.90;;;;;;5012544;28;20026;-71
2020/12/22 04:29:20;;;;;;;0.57;0.20;;;11.60;99.90;;;;;;5011222;28;20618;-71
2020/12/22 04:31:45;;;;;;;0.93;0.22;;;11.70;99.90;;;;;;5012242;28;20022;-71
2020/12/22 04:34:11;;;;;;;0.20;0.20;;;11.80;99.90;;;;;;5016188;28;20489;-73
2020/12/22 04:36:36;;;;;;;0.28;0.22;;;11.90;99.90;;;;;;4998643;28;20772;-73
2020/12/22 04:39:03;;;;;;;0.20;0.20;;;11.90;99.90;;;;;;5015824;28;20102;-71
2020/12/22 04:41:30;;;;;;;0.45;0.30;;;11.90;99.90;;;;;;4999097;28;20401;-72
2020/12/22 04:43:56;;;;;;;0.20;0.20;;;11.80;99.90;;;;;;5016929;28;20029;-72
2020/12/22 04:46:23;;;;;;;0.50;0.40;;;11.80;99.90;;;;;;4999018;28;20037;-73
2020/12/22 04:48:57;;;;;;;0.50;0.30;;;11.80;99.90;;;;;;5017310;28;20029;-71
2020/12/22 04:51:23;;;;;;;0.43;0.20;;;11.90;99.90;;;;;;5016182;28;20033;-71
2020/12/22 04:53:50;;;;;;;0.30;0.30;;;11.90;99.90;;;;;;5016569;28;20044;-72
2020/12/22 04:56:18;;;;;;;0.20;0.20;;;11.80;99.90;;;;;;5016278;28;20025;-72
2020/12/22 04:58:43;;;;;;;0.20;0.20;;;11.80;99.90;;;;;;5016241;28;20568;-72
2020/12/22 05:01:09;;;;;;;1.10;0.30;;;11.80;99.90;;;;;;5015787;28;20046;-72
2020/12/22 05:03:35;;;;;;;0.20;0.20;;;11.80;99.90;;;;;;5016202;28;20028;-72
2020/12/22 05:06:00;;;;;;;0.28;0.28;;;11.70;99.90;;;;;;5015818;28;20037;-72
2020/12/22 05:08:26;;;;;;;0.30;0.30;;;11.60;99.90;;;;;;5015515;28;20397;-72
2020/12/22 05:10:52;;;;;;;0.38;0.30;;;11.60;99.90;;;;;;5015956;28;20171;-72
2020/12/22 05:13:19;;;;;;;0.55;0.30;;;11.60;99.90;;;;;;5015426;28;20041;-71
2020/12/22 05:15:50;;;;;;;0.10;0.10;;;11.60;99.90;;;;;;5016150;28;20064;-72
2020/12/22 05:18:20;;;;;;;2.20;0.63;;;11.60;99.90;;;;;;4997478;28;20037;-70
2020/12/22 05:20:47;;;;;;;0.75;0.40;;;11.70;99.90;;;;;;5015793;28;20487;-71
2020/12/22 05:23:18;;;;;;;1.75;0.30;;;11.80;99.90;;;;;;5015058;28;20026;-71
2020/12/22 05:25:45;;;;;;;0.40;0.30;;;11.70;99.90;;;;;;5024496;28;20057;-73
2020/12/22 05:28:16;;;;;;;0.28;0.28;;;11.70;99.90;;;;;;5039443;28;20010;-74
2020/12/22 05:30:45;;;;;;;0.70;0.30;;;11.70;99.90;;;;;;5039572;28;20029;-74
2020/12/22 05:33:11;;;;;;;0.20;0.20;;;11.70;99.90;;;;;;5039609;28;20094;-75
2020/12/22 05:35:39;;;;;;;0.40;0.40;;;11.70;99.90;;;;;;5039083;28;20037;-74
2020/12/22 05:38:05;;;;;;;0.93;0.20;;;11.70;99.90;;;;;;5020324;28;20033;-72
2020/12/22 05:40:37;;;;;;;3.20;1.05;;;11.80;99.90;;;;;;4997686;28;20551;-71
2020/12/22 05:43:04;;;;;;;0.28;0.28;;;11.80;99.90;;;;;;5015537;28;20038;-73
2020/12/22 05:45:31;;;;;;;1.38;0.28;;;11.90;99.90;;;;;;5015377;28;20097;-71
2020/12/22 05:47:57;;;;;;;0.88;0.30;;;11.90;99.90;;;;;;4997288;28;20018;-71
2020/12/22 05:50:24;;;;;;;1.02;0.22;;;12.00;99.90;;;;;;5015400;28;20075;-71
2020/12/22 05:52:53;;;;;;;1.45;0.30;;;12.00;99.90;;;;;;4997163;28;20126;-71
2020/12/22 05:55:32;;;;;;;1.17;0.20;;;12.10;99.90;;;;;;4997371;28;20112;-72
2020/12/22 05:58:12;;;;;;;1.27;0.35;;;12.20;99.90;;;;;;5014854;28;20029;-72
2020/12/22 06:00:39;;;;;;;0.95;0.20;;;12.30;99.90;;;;;;4991369;28;20057;-72
2020/12/22 06:03:12;;;;;;;0.65;0.20;;;12.20;99.90;;;;;;5017639;28;20036;-74
2020/12/22 06:05:45;;;;;;;0.63;0.30;;;12.20;99.90;;;;;;5016808;28;20088;-73
2020/12/22 06:08:13;;;;;;;0.30;0.28;;;12.30;99.90;;;;;;5016821;28;20030;-72
2020/12/22 06:10:40;;;;;;;0.43;0.28;;;12.40;99.90;;;;;;4999695;28;20104;-73
2020/12/22 06:13:08;;;;;;;0.10;0.10;;;12.40;99.90;;;;;;5016783;28;20025;-73
2020/12/22 06:15:34;;;;;;;0.30;0.30;;;12.40;99.90;;;;;;5016951;28;20014;-73
2020/12/22 06:18:01;;;;;;;0.77;0.30;;;12.50;99.90;;;;;;5014421;28;20575;-72
2020/12/22 06:20:28;;;;;;;1.05;0.20;;;12.60;99.90;;;;;;5014335;28;20061;-70
2020/12/22 06:23:00;;;;;;;0.20;0.20;;;12.60;99.90;;;;;;5014432;28;20022;-72
2020/12/22 06:25:27;;;;;;;0.22;0.22;;;12.60;99.90;;;;;;5014031;28;20036;-72
2020/12/22 06:27:52;;;;;;;0.20;0.20;;;12.50;99.90;;;;;;5014349;28;20405;-71
2020/12/22 06:30:29;;;;;;;0.35;0.35;;;12.50;99.90;;;;;;5014502;28;20041;-72
2020/12/22 06:32:55;;;;;;;2.08;0.73;;;12.50;99.90;;;;;;5013759;28;20058;-71
2020/12/22 06:35:33;;;;;;;0.55;0.38;;;12.60;99.90;;;;;;5014298;28;20121;-72
2020/12/22 06:37:59;;;;;;;2.38;0.40;;;12.60;99.90;;;;;;4995895;28;20018;-71
2020/12/22 06:40:57;;;;;;;0.60;0.30;;;12.60;99.90;;;;;;5014790;28;20088;-71
2020/12/22 06:43:44;;;;;;;0.55;0.25;;;12.60;99.90;;;;;;5013681;28;20026;-71
2020/12/22 06:46:51;;;;;;;0.57;0.40;;;12.60;99.90;;;;;;5014056;28;20406;-71
2020/12/22 06:49:17;;;;;;;0.30;0.30;;;12.60;99.90;;;;;;4917274;29;20095;-72
2020/12/22 06:51:43;;;;;;;0.45;0.20;;;12.60;99.90;;;;;;4929229;29;20157;-72
2020/12/22 06:54:14;;;;;;;0.90;0.20;;;12.70;99.90;;;;;;4966682;28;20049;-71
2020/12/22 06:56:49;;;;;;;0.45;0.20;;;12.70;99.90;;;;;;4995332;28;20452;-72
2020/12/22 06:59:36;;;;;;;0.82;0.20;;;12.60;99.90;;;;;;5013672;28;20033;-71
2020/12/22 07:02:03;;;;;;;1.13;0.30;;;12.70;99.90;;;;;;4984812;28;20022;-72
2020/12/22 07:04:39;;;;;;;0.40;0.32;;;12.70;99.90;;;;;;5014055;28;20184;-72
2020/12/22 07:07:04;;;;;;;1.17;0.60;;;12.70;99.90;;;;;;5013718;28;20125;-72
2020/12/22 07:09:32;;;;;;;0.20;0.20;;;12.70;99.90;;;;;;5013656;28;20115;-71
2020/12/22 07:12:10;;;;;;;0.30;0.30;;;12.70;99.90;;;;;;5014280;28;20026;-72
2020/12/22 07:14:40;;;;;;;0.57;0.38;;;12.70;99.90;;;;;;4995879;28;20037;-71
2020/12/22 07:17:06;;;;;;;3.10;1.33;;;12.70;99.90;;;;;;4996498;28;20116;-72
2020/12/22 07:19:34;;;;;;;0.30;0.30;;;12.80;99.90;;;;;;4995388;28;20029;-72
2020/12/22 07:22:04;;;;;;;0.40;0.40;;;12.90;99.90;;;;;;5013821;28;20089;-72
2020/12/22 07:24:34;;;;;;;0.30;0.30;;;12.90;99.90;;;;;;5013761;28;20608;-71
2020/12/22 07:27:00;;;;;;;2.33;0.30;;;12.80;99.90;;;;;;4995797;28;20041;-71
2020/12/22 07:29:25;;;;;;;0.57;0.50;;;12.90;99.90;;;;;;5013227;28;20033;-72
2020/12/22 07:31:51;;;;;;;0.65;0.25;;;12.90;99.90;;;;;;5013417;28;20026;-71
2020/12/22 07:34:19;;;;;;;0.52;0.30;;;13.00;99.90;;;;;;5013797;28;20087;-71
2020/12/22 07:36:46;;;;;;;2.55;1.00;;;13.00;99.90;;;;;;5013226;28;20509;-73
2020/12/22 07:39:23;;;;;;;0.45;0.30;;;13.10;99.90;;;;;;5003294;28;20518;-72
2020/12/22 07:41:52;;;;;;;1.17;0.30;;;13.10;99.90;;;;;;4996342;28;20057;-71
2020/12/22 07:44:22;;;;;;;0.63;0.30;;;13.10;99.90;;;;;;4994909;28;20026;-72
2020/12/22 07:46:52;;;;;;;0.85;0.40;;;13.20;99.90;;;;;;5015163;28;20029;-71
2020/12/22 07:49:18;;;;;;;0.45;0.30;;;13.20;99.90;;;;;;5016871;28;20517;-71
2020/12/22 07:51:45;;;;;;;0.30;0.30;;;13.20;99.90;;;;;;5012581;28;20061;-71
2020/12/22 07:54:11;;;;;;;1.58;0.28;;;13.30;99.90;;;;;;5013258;28;20361;-71
2020/12/22 07:56:38;;;;;;;1.42;0.40;;;13.20;99.90;;;;;;5012919;28;20105;-71
2020/12/22 07:59:06;;;;;;;1.38;0.50;;;13.20;99.90;;;;;;5012353;28;20032;-71
2020/12/22 08:01:38;;;;;;;0.40;0.40;;;13.20;99.90;;;;;;5013380;28;20026;-71
2020/12/22 08:04:13;;;;;;;0.30;0.30;;;13.30;99.90;;;;;;5014347;28;20975;-72
2020/12/22 08:06:39;;;;;;;0.85;0.30;;;13.30;99.90;;;;;;5012753;28;20473;-72
2020/12/22 08:09:06;;;;;;;0.40;0.40;;;13.40;99.90;;;;;;4995694;28;20026;-71
2020/12/22 08:11:32;;;;;;;0.30;0.30;;;13.30;99.90;;;;;;5011945;28;20501;-71
2020/12/22 08:14:00;;;;;;;5.07;0.47;;;13.30;99.90;;;;;;5010815;28;20026;-71
2020/12/22 08:16:26;;;;;;;0.30;0.30;;;13.30;99.90;;;;;;5012669;28;20034;-71
2020/12/22 08:18:52;;;;;;;0.63;0.43;;;13.30;99.90;;;;;;5012399;28;20049;-72
2020/12/22 08:21:19;;;;;;;0.20;0.20;;;13.30;99.90;;;;;;5012765;28;20508;-72
2020/12/22 08:23:47;;;;;;;0.30;0.30;;;13.40;99.90;;;;;;5012778;28;20038;-72
2020/12/22 08:26:17;;;;;;;0.50;0.40;;;13.40;99.90;;;;;;4994793;28;20128;-73
2020/12/22 08:28:54;;;;;;;0.43;0.32;;;13.40;99.90;;;;;;4995037;28;20026;-70
2020/12/22 08:31:25;;;;;;;0.57;0.40;;;13.40;99.90;;;;;;4994875;28;20462;-72
2020/12/22 08:33:58;;;;;;;;;;;13.40;99.90;;;;;;5012979;28;20030;-73
2020/12/22 08:36:27;;;;;;;0.43;0.20;;;13.40;99.90;;;;;;5012461;28;19962;-72
2020/12/22 08:39:14;;;;;;;2.22;0.40;;;13.50;99.90;;;;;;5013261;28;20018;-72
2020/12/22 08:41:45;;;;;;;0.20;0.20;;;13.50;99.90;;;;;;5018110;28;20026;-71
2020/12/22 08:44:11;;;;;;;0.20;0.20;;;13.40;99.90;;;;;;5012889;28;20063;-72
2020/12/22 08:46:38;;;;;;;0.40;0.40;;;13.50;99.90;;;;;;5012324;28;20117;-73
2020/12/22 08:49:16;;;;;;;0.28;0.28;;;13.50;99.90;;;;;;5012581;28;20042;-72
2020/12/22 08:51:43;;;;;;;0.30;0.30;;;13.50;99.90;;;;;;4996358;28;20022;-71
2020/12/22 08:54:08;;;;;;;0.55;0.40;;;13.50;99.90;;;;;;5012831;28;20477;-71
2020/12/22 08:56:34;;;;;;;0.20;0.20;;;13.60;99.90;;;;;;5012297;28;20038;-71
2020/12/22 08:59:05;;;;;;;0.55;0.25;;;13.60;99.90;;;;;;5012616;28;20022;-71
2020/12/22 09:01:44;;;;;;;0.52;0.30;;;13.60;99.90;;;;;;5012363;28;20545;-72
2020/12/22 09:04:11;;;;;;;1.67;0.50;;;13.60;99.90;;;;;;5012715;28;20514;-73
2020/12/22 09:06:41;;;;;;;0.20;0.20;;;13.60;99.90;;;;;;5012998;28;20030;-72
2020/12/22 09:09:37;;;;;;;0.85;0.32;;;13.60;99.90;;;;;;5011800;28;20053;-71
2020/12/22 09:12:10;;;;;;;0.57;0.40;;;13.60;99.90;;;;;;4998944;28;20117;-71
2020/12/22 09:14:48;;;;;;;0.77;0.43;;;13.60;99.90;;;;;;5011654;28;20087;-72
2020/12/22 09:17:27;;;;;;;0.50;0.40;;;13.60;99.90;;;;;;5012314;28;20022;-73
2020/12/22 09:19:52;;;;;;;0.38;0.38;;;13.60;99.90;;;;;;5015487;28;20397;-71
2020/12/22 09:22:28;;;;;;;0.30;0.30;;;13.60;99.90;;;;;;5016391;28;20022;-72
2020/12/22 09:24:56;;;;;;;0.20;0.20;;;13.60;99.90;;;;;;5015873;28;20031;-73
2020/12/22 09:27:39;;;;;;;1.85;0.30;;;13.60;99.90;;;;;;5016090;28;20022;-72
2020/12/22 09:30:06;;;;;;;1.20;0.57;;;13.70;99.90;;;;;;5016712;28;20057;-72
2020/12/22 09:32:32;;;;;;;0.30;0.30;;;13.70;99.90;;;;;;5015234;28;20366;-72
2020/12/22 09:34:58;;;;;;;1.75;0.40;;;13.70;99.90;;;;;;5015954;28;20033;-72
2020/12/22 09:37:25;;;;;;;0.30;0.30;;;13.60;99.90;;;;;;5015626;28;20068;-72
2020/12/22 09:39:52;;;;;;;0.40;0.40;;;13.60;99.90;;;;;;5016086;28;20080;-72
2020/12/22 09:42:19;;;;;;;0.40;0.40;;;13.50;99.90;;;;;;5015745;28;20030;-71
2020/12/22 09:44:45;;;;;;;1.55;0.40;;;13.40;99.90;;;;;;5016143;28;20037;-73
2020/12/22 09:47:10;;;;;;;1.00;0.40;;;13.40;99.90;;;;;;5016078;28;20022;-73
2020/12/22 09:49:36;;;;;;;2.25;0.60;;;13.40;99.90;;;;;;5015733;28;20362;-71
2020/12/22 09:52:02;;;;;;;0.63;0.32;;;13.50;99.90;;;;;;5016058;28;20030;-72
2020/12/22 09:54:28;;;;;;;0.30;0.30;;;13.60;99.90;;;;;;5015444;28;20033;-71
2020/12/22 09:56:54;;;;;;;0.60;0.47;;;13.50;99.90;;;;;;5015820;28;20026;-73
2020/12/22 09:59:19;;;;;;;0.63;0.40;;;13.50;99.90;;;;;;4997701;28;20091;-72
2020/12/22 10:01:45;;;;;;;0.30;0.30;;;13.50;99.90;;;;;;5015515;28;20018;-73
2020/12/22 10:04:12;;;;;;;0.20;0.20;;;13.60;99.90;;;;;;5015727;28;20029;-71
2020/12/22 10:06:38;;;;;;;4.05;0.30;;;13.60;99.90;;;;;;5015568;28;20200;-71
2020/12/22 10:09:03;;;;;;;1.23;0.40;;;13.70;99.90;;;;;;4998738;28;20062;-69
2020/12/22 10:11:35;;;;;;;0.80;0.30;;;13.80;99.90;;;;;;5017186;28;20033;-69
2020/12/22 10:14:01;;;;;;;0.60;0.40;;;13.80;99.90;;;;;;5016379;28;20041;-69
2020/12/22 10:16:27;;;;;;;0.47;0.47;;;13.80;99.90;;;;;;5004094;28;20049;-68
2020/12/22 10:18:52;;;;;;;0.38;0.30;;;13.80;99.90;;;;;;5018165;28;20030;-69
2020/12/22 10:21:20;;;;;;;0.43;0.32;;;13.90;99.90;;;;;;5014008;28;20050;-69
2020/12/22 10:23:46;;;;;;;1.52;0.50;;;13.90;99.90;;;;;;5015009;28;20042;-69
2020/12/22 10:26:23;;;;;;;1.40;0.38;;;13.90;99.90;;;;;;5014653;28;20028;-69
2020/12/22 10:28:49;;;;;;;0.50;0.35;;;14.00;99.90;;;;;;4999286;28;20105;-70
2020/12/22 10:31:18;;;;;;;0.70;0.45;;;14.00;99.90;;;;;;5006990;28;20534;-69
2020/12/22 10:33:44;;;;;;;0.60;0.40;;;14.10;99.90;;;;;;5014762;28;20033;-70
2020/12/22 10:36:14;;;;;;;0.98;0.38;;;14.10;99.90;;;;;;4997385;28;20466;-70
2020/12/22 10:38:40;;;;;;;0.30;0.30;;;14.20;99.90;;;;;;5016275;28;20021;-70
2020/12/22 10:41:06;;;;;;;0.40;0.40;;;14.20;99.90;;;;;;5015451;28;20018;-70
2020/12/22 10:43:32;;;;;;;0.40;0.40;;;14.20;99.90;;;;;;5015772;28;20084;-71
2020/12/22 10:45:58;;;;;;;0.73;0.40;;;14.20;99.90;;;;;;5021347;28;20030;-71
2020/12/22 10:48:23;;;;;;;0.90;0.40;;;14.30;99.90;;;;;;5017428;28;20278;-72
2020/12/22 10:50:49;;;;;;;0.40;0.35;;;14.40;99.90;;;;;;5015664;28;20030;-70
2020/12/22 10:53:15;;;;;;;0.40;0.40;;;14.30;99.90;;;;;;5015023;28;20022;-71
2020/12/22 10:55:40;;;;;;;0.20;0.20;;;14.40;99.90;;;;;;5015848;28;20026;-72
2020/12/22 10:58:07;;;;;;;0.30;0.30;;;14.30;99.90;;;;;;5016581;28;20076;-69
2020/12/22 11:00:32;;;;;;;2.88;0.50;;;14.30;99.90;;;;;;5017596;28;20028;-70
2020/12/22 11:03:02;;;;;;;0.30;0.30;;;14.30;99.90;;;;;;5016465;28;20049;-72
2020/12/22 11:08:11;;;;;;;0.38;0.30;;;14.30;99.90;;;;;;5016056;28;20581;-70
2020/12/22 11:10:37;;;;;;;0.30;0.30;;;14.30;99.90;;;;;;5017380;28;20060;-71
2020/12/22 11:13:03;;;;;;;1.02;0.30;;;14.40;99.90;;;;;;5014344;28;20026;-70
2020/12/22 11:15:30;;;;;;;0.50;0.40;;;14.30;99.90;;;;;;5017055;28;20054;-70
2020/12/22 11:17:55;;;;;;;0.40;0.40;;;14.30;99.90;;;;;;5018111;28;20025;-71
2020/12/22 11:20:21;;;;;;;0.47;0.47;;;14.40;99.90;;;;;;5016852;28;20030;-71
2020/12/22 11:22:47;;;;;;;0.30;0.30;;;14.40;99.90;;;;;;5004913;28;20026;-70
2020/12/22 11:25:14;;;;;;;0.30;0.30;;;14.40;99.90;;;;;;5027019;28;20040;-71
2020/12/22 11:27:40;;;;;;;0.32;0.32;;;14.50;99.90;;;;;;5025294;28;20042;-70
2020/12/22 11:30:06;;;;;;;0.38;0.38;;;14.50;99.90;;;;;;5023883;28;20045;-70
2020/12/22 11:32:32;;;;;;;0.40;0.35;;;14.50;99.90;;;;;;5006138;28;20022;-71
2020/12/22 11:34:57;;;;;;;0.77;0.30;;;14.50;99.90;;;;;;5022567;28;20030;-71
2020/12/22 11:37:25;;;;;;;1.95;0.40;;;14.50;99.90;;;;;;5015225;28;20030;-70
2020/12/22 11:39:51;;;;;;;0.50;0.50;;;14.50;99.90;;;;;;5013510;28;20021;-70
2020/12/22 11:42:16;;;;;;;0.70;0.40;;;14.50;99.90;;;;;;5014808;28;20025;-71
2020/12/22 11:44:42;;;;;;;0.40;0.30;;;14.50;99.90;;;;;;5016482;28;20057;-71
2020/12/22 11:47:07;;;;;;;1.45;0.57;;;14.50;99.90;;;;;;4981713;28;20055;-71
2020/12/22 11:49:33;;;;;;;0.35;0.30;;;14.40;99.90;;;;;;5006192;28;20033;-69
2020/12/22 11:51:58;;;;;;;1.67;0.45;;;14.40;99.90;;;;;;5009467;28;20031;-71
2020/12/22 11:54:24;;;;;;;0.65;0.50;;;14.30;99.90;;;;;;4996452;28;20034;-70
2020/12/22 11:56:51;;;;;;;0.43;0.40;;;14.30;99.90;;;;;;5001274;28;20072;-71
2020/12/22 11:59:18;;;;;;;0.60;0.43;;;14.40;99.90;;;;;;4996640;28;20050;-70
2020/12/22 12:01:44;;;;;;;0.68;0.40;;;14.40;99.90;;;;;;5013918;28;20033;-70
2020/12/22 12:04:11;;;;;;;0.40;0.40;;;14.40;99.90;;;;;;5013928;28;20034;-71
2020/12/22 12:06:37;;;;;;;1.80;0.50;;;14.50;99.90;;;;;;5013538;28;20061;-71
2020/12/22 12:09:05;;;;;;;1.23;0.30;;;14.50;99.90;;;;;;4985129;28;20410;-70
2020/12/22 12:11:31;;;;;;;1.00;0.45;;;14.50;99.90;;;;;;5003692;28;20440;-71
2020/12/22 12:13:56;;;;;;;0.32;0.32;;;14.70;99.90;;;;;;5014502;28;20025;-71
2020/12/22 12:16:22;;;;;;;0.32;0.30;;;14.80;99.90;;;;;;4996080;28;20032;-70
2020/12/22 12:18:47;;;;;;;0.38;0.38;;;14.80;99.90;;;;;;5013260;28;20028;-72
2020/12/22 12:21:15;;;;;;;0.65;0.57;;;14.80;99.90;;;;;;5018606;28;20140;-71
2020/12/22 12:23:42;;;;;;;3.40;0.73;;;14.80;99.90;;;;;;5017689;28;20540;-71
2020/12/22 12:26:07;;;;;;;1.85;0.30;;;15.00;99.90;;;;;;5002366;28;20025;-70
2020/12/22 12:28:33;;;;;;;2.38;0.55;;;15.00;99.90;;;;;;5013765;28;20032;-70
2020/12/22 12:30:58;;;;;;;2.38;0.40;;;14.90;99.90;;;;;;5013833;28;20088;-71
2020/12/22 12:33:24;;;;;;;1.85;0.30;;;14.90;99.90;;;;;;5013637;28;20398;-71
2020/12/22 12:35:50;;;;;;;0.30;0.30;;;14.80;99.90;;;;;;5013908;28;20052;-71
2020/12/22 12:38:15;;;;;;;0.30;0.30;;;14.80;99.90;;;;;;5011888;28;20444;-72
2020/12/22 12:40:41;;;;;;;1.08;0.40;;;14.90;99.90;;;;;;5015461;28;20022;-72
2020/12/22 12:43:06;;;;;;;1.05;0.30;;;14.90;99.90;;;;;;5000930;28;20513;-71
2020/12/22 12:45:32;;;;;;;0.30;0.30;;;14.80;99.90;;;;;;5014220;28;20075;-72
2020/12/22 12:47:58;;;;;;;0.93;0.40;;;14.80;99.90;;;;;;5014796;28;20130;-70
2020/12/22 12:50:30;;;;;;;1.20;0.50;;;14.80;99.90;;;;;;5000965;28;20034;-71
2020/12/22 12:52:56;;;;;;;0.22;0.20;;;14.90;99.90;;;;;;5023662;28;20311;-72